Time;durP1;ratioP1;P1;durP2;ratioP2;P2;SDS_P1;SDS_P2;PMS_P1;PMS_P2;Temp;Humidity;BMP_temperature;BMP_pressure;BME280_temperature;BME280_humidity;BME280_pressure;Samples;Min_cycle;Max_cycle;Signal;HPM_P1;HPM_P2
2022/07/26 00:01:14;;;;;;;0.10;0.10;;;;;;;;;;6193644;23;20467;-87
2022/07/26 00:03:40;;;;;;;0.10;0.10;;;;;;;;;;6193352;23;20082;-86
2022/07/26 00:06:06;;;;;;;0.10;0.10;;;;;;;;;;6218311;23;20456;-86
2022/07/26 00:08:32;;;;;;;0.10;0.10;;;;;;;;;;6218111;23;20023;-86
2022/07/26 00:10:58;;;;;;;0.10;0.10;;;;;;;;;;6218398;23;20018;-86
2022/07/26 00:13:24;;;;;;;0.10;0.10;;;;;;;;;;6193220;23;20016;-86
2022/07/26 00:15:50;;;;;;;0.10;0.10;;;;;;;;;;6193213;23;20452;-86
2022/07/26 00:18:16;;;;;;;0.10;0.10;;;;;;;;;;6193090;23;20015;-86
2022/07/26 00:20:42;;;;;;;0.10;0.10;;;;;;;;;;6187784;23;20023;-86
2022/07/26 00:23:08;;;;;;;0.10;0.10;;;;;;;;;;6187881;23;20091;-86
2022/07/26 00:25:34;;;;;;;0.10;0.10;;;;;;;;;;6187820;23;20099;-86
2022/07/26 00:28:00;;;;;;;0.10;0.10;;;;;;;;;;6188248;23;20380;-86
2022/07/26 00:30:26;;;;;;;0.17;0.17;;;;;;;;;;6187732;23;20071;-86
2022/07/26 00:32:52;;;;;;;0.10;0.10;;;;;;;;;;6187355;23;20445;-86
2022/07/26 00:35:18;;;;;;;0.10;0.10;;;;;;;;;;6187699;23;20008;-86
2022/07/26 00:37:45;;;;;;;0.10;0.10;;;;;;;;;;6187761;23;20040;-86
2022/07/26 00:40:11;;;;;;;0.10;0.10;;;;;;;;;;6187662;23;20067;-86
2022/07/26 00:42:38;;;;;;;0.10;0.10;;;;;;;;;;6163482;23;20023;-86
2022/07/26 00:45:05;;;;;;;0.10;0.10;;;;;;;;;;6187669;23;20024;-86
2022/07/26 00:47:31;;;;;;;0.10;0.10;;;;;;;;;;6187658;23;20024;-87
2022/07/26 00:49:57;;;;;;;0.10;0.10;;;;;;;;;;6162388;23;20066;-87
2022/07/26 00:52:23;;;;;;;0.10;0.10;;;;;;;;;;6162687;23;20091;-87
2022/07/26 00:54:49;;;;;;;0.10;0.10;;;;;;;;;;6187560;23;20019;-87
2022/07/26 00:57:15;;;;;;;0.10;0.10;;;;;;;;;;6187557;23;20358;-87
2022/07/26 00:59:41;;;;;;;0.10;0.10;;;;;;;;;;6187509;23;20075;-86
2022/07/26 01:02:08;;;;;;;0.10;0.10;;;;;;;;;;6162728;23;20442;-86
2022/07/26 01:04:34;;;;;;;0.10;0.10;;;;;;;;;;6187590;23;20055;-87
2022/07/26 01:07:00;;;;;;;0.10;0.10;;;;;;;;;;6187874;23;20017;-87
2022/07/26 01:09:26;;;;;;;0.10;0.10;;;;;;;;;;6187599;23;20013;-87
2022/07/26 01:11:52;;;;;;;0.93;0.85;;;;;;;;;;6187307;23;20102;-86
2022/07/26 01:14:21;;;;;;;0.10;0.10;;;;;;;;;;6162607;23;20013;-86
2022/07/26 01:16:47;;;;;;;0.20;0.20;;;;;;;;;;6187400;23;20013;-86
2022/07/26 01:19:13;;;;;;;0.10;0.10;;;;;;;;;;6187137;23;20016;-86
2022/07/26 01:21:39;;;;;;;0.10;0.10;;;;;;;;;;6187402;23;20024;-87
2022/07/26 01:24:05;;;;;;;0.20;0.20;;;;;;;;;;6187556;23;20092;-86
2022/07/26 01:26:31;;;;;;;0.10;0.10;;;;;;;;;;6187392;23;20346;-87
2022/07/26 01:28:57;;;;;;;0.10;0.10;;;;;;;;;;6187275;23;20023;-87
2022/07/26 01:31:23;;;;;;;0.10;0.10;;;;;;;;;;6187424;23;20091;-86
2022/07/26 01:33:49;;;;;;;0.10;0.10;;;;;;;;;;6162299;23;20048;-86
2022/07/26 01:36:15;;;;;;;0.10;0.10;;;;;;;;;;6187323;23;20058;-86
2022/07/26 01:38:41;;;;;;;0.10;0.10;;;;;;;;;;6187340;23;20087;-86
2022/07/26 01:41:07;;;;;;;0.10;0.10;;;;;;;;;;6187215;23;20013;-86
2022/07/26 01:43:33;;;;;;;0.10;0.10;;;;;;;;;;6162853;23;20013;-87
2022/07/26 01:45:59;;;;;;;0.10;0.10;;;;;;;;;;6187416;23;20446;-86
2022/07/26 01:48:25;;;;;;;0.10;0.10;;;;;;;;;;6162324;23;20016;-86
2022/07/26 01:50:51;;;;;;;0.10;0.10;;;;;;;;;;6162472;23;20036;-86
2022/07/26 01:53:17;;;;;;;0.10;0.10;;;;;;;;;;6187183;23;20071;-87
2022/07/26 01:55:43;;;;;;;0.10;0.10;;;;;;;;;;6187361;23;20525;-87
2022/07/26 01:58:09;;;;;;;0.10;0.10;;;;;;;;;;6187182;23;20017;-86
2022/07/26 02:00:35;;;;;;;0.10;0.10;;;;;;;;;;6162794;23;20013;-86
2022/07/26 02:03:01;;;;;;;0.10;0.10;;;;;;;;;;6187688;23;20051;-87
2022/07/26 02:05:27;;;;;;;0.10;0.10;;;;;;;;;;6189438;23;20059;-87
2022/07/26 02:07:53;;;;;;;0.10;0.10;;;;;;;;;;6189053;23;20012;-86
2022/07/26 02:10:19;;;;;;;0.10;0.10;;;;;;;;;;6188968;23;20044;-87
2022/07/26 02:12:45;;;;;;;0.10;0.10;;;;;;;;;;6189183;23;20019;-85
2022/07/26 02:15:11;;;;;;;0.10;0.10;;;;;;;;;;6188770;23;20020;-86
2022/07/26 02:17:37;;;;;;;0.10;0.10;;;;;;;;;;6189315;23;20008;-86
2022/07/26 02:20:04;;;;;;;0.10;0.10;;;;;;;;;;6164169;23;20027;-86
2022/07/26 02:22:30;;;;;;;0.10;0.10;;;;;;;;;;6189134;23;20016;-86
2022/07/26 02:24:55;;;;;;;0.10;0.10;;;;;;;;;;6189095;23;20319;-86
2022/07/26 02:27:21;;;;;;;1.38;0.35;;;;;;;;;;6188990;23;20071;-87
2022/07/26 02:29:47;;;;;;;0.10;0.10;;;;;;;;;;6189234;23;20012;-87
2022/07/26 02:32:13;;;;;;;0.10;0.10;;;;;;;;;;6189127;23;20024;-87
2022/07/26 02:34:39;;;;;;;0.10;0.10;;;;;;;;;;6188874;23;20023;-86
2022/07/26 02:37:05;;;;;;;0.10;0.10;;;;;;;;;;6189170;23;20048;-86
2022/07/26 02:39:31;;;;;;;0.10;0.10;;;;;;;;;;6188767;23;20039;-86
2022/07/26 02:41:58;;;;;;;0.20;0.20;;;;;;;;;;6188909;23;20143;-86
2022/07/26 02:44:24;;;;;;;0.10;0.10;;;;;;;;;;6163980;23;20016;-86
2022/07/26 02:46:50;;;;;;;0.10;0.10;;;;;;;;;;6188868;23;20338;-87
2022/07/26 02:49:16;;;;;;;0.10;0.10;;;;;;;;;;6188619;23;20017;-86
2022/07/26 02:51:42;;;;;;;0.10;0.10;;;;;;;;;;6164065;23;20048;-87
2022/07/26 02:54:08;;;;;;;0.10;0.10;;;;;;;;;;6188730;23;20012;-87
2022/07/26 02:56:34;;;;;;;0.10;0.10;;;;;;;;;;6188719;23;20019;-88
2022/07/26 02:59:00;;;;;;;0.10;0.10;;;;;;;;;;6163911;23;20296;-88
2022/07/26 03:01:26;;;;;;;0.10;0.10;;;;;;;;;;6188557;23;20039;-86
2022/07/26 03:03:52;;;;;;;0.10;0.10;;;;;;;;;;6188623;23;20044;-87
2022/07/26 03:06:18;;;;;;;0.10;0.10;;;;;;;;;;6163789;23;20341;-86
2022/07/26 03:08:44;;;;;;;0.10;0.10;;;;;;;;;;6163387;23;20044;-85
2022/07/26 03:11:10;;;;;;;0.10;0.10;;;;;;;;;;6163935;23;20051;-86
2022/07/26 03:13:36;;;;;;;0.10;0.10;;;;;;;;;;6188392;23;20017;-86
2022/07/26 03:16:02;;;;;;;0.10;0.10;;;;;;;;;;6188522;23;20044;-86
2022/07/26 03:18:28;;;;;;;0.10;0.10;;;;;;;;;;6163341;23;20012;-86
2022/07/26 03:20:54;;;;;;;0.10;0.10;;;;;;;;;;6188604;23;20446;-85
2022/07/26 03:23:20;;;;;;;0.10;0.10;;;;;;;;;;6188379;23;20059;-86
2022/07/26 03:25:46;;;;;;;0.10;0.10;;;;;;;;;;6188584;23;20464;-85
2022/07/26 03:28:12;;;;;;;0.10;0.10;;;;;;;;;;6188576;23;20017;-86
2022/07/26 03:30:38;;;;;;;0.10;0.10;;;;;;;;;;6163856;23;20016;-86
2022/07/26 03:33:04;;;;;;;0.10;0.10;;;;;;;;;;6188178;23;20020;-85
2022/07/26 03:35:30;;;;;;;0.10;0.10;;;;;;;;;;6188470;23;20008;-85
2022/07/26 03:37:56;;;;;;;0.10;0.10;;;;;;;;;;6188358;23;20012;-85
2022/07/26 03:40:22;;;;;;;0.10;0.10;;;;;;;;;;6188219;23;20009;-85
2022/07/26 03:42:48;;;;;;;0.10;0.10;;;;;;;;;;6188169;23;20012;-85
2022/07/26 03:45:14;;;;;;;0.10;0.10;;;;;;;;;;6188283;23;20071;-85
2022/07/26 03:47:40;;;;;;;1.30;0.95;;;;;;;;;;6188299;23;20467;-85
2022/07/26 03:50:06;;;;;;;1.00;0.20;;;;;;;;;;6188182;23;20078;-85
2022/07/26 03:52:32;;;;;;;0.10;0.10;;;;;;;;;;6188132;23;20024;-85
2022/07/26 03:54:58;;;;;;;0.10;0.10;;;;;;;;;;6188265;23;20017;-86
2022/07/26 03:57:24;;;;;;;0.10;0.10;;;;;;;;;;6163496;23;20023;-85
2022/07/26 03:59:50;;;;;;;0.10;0.10;;;;;;;;;;6188008;23;20012;-85
2022/07/26 04:02:16;;;;;;;0.10;0.10;;;;;;;;;;6188205;23;20373;-85
2022/07/26 04:04:42;;;;;;;0.05;0.05;;;;;;;;;;6163437;23;20024;-85
2022/07/26 04:07:08;;;;;;;0.10;0.10;;;;;;;;;;6188061;23;20016;-85
2022/07/26 04:09:34;;;;;;;0.10;0.10;;;;;;;;;;6188110;23;20391;-85
2022/07/26 04:12:00;;;;;;;0.10;0.10;;;;;;;;;;6188096;23;20091;-85
2022/07/26 04:14:26;;;;;;;0.10;0.10;;;;;;;;;;6163275;23;20095;-85
2022/07/26 04:16:52;;;;;;;0.10;0.10;;;;;;;;;;6163182;23;20064;-86
2022/07/26 04:19:18;;;;;;;0.10;0.10;;;;;;;;;;6187489;23;20058;-85
2022/07/26 04:21:44;;;;;;;0.10;0.10;;;;;;;;;;6163452;23;20036;-85
2022/07/26 04:24:10;;;;;;;0.10;0.10;;;;;;;;;;6188101;23;20492;-85
2022/07/26 04:26:36;;;;;;;0.10;0.10;;;;;;;;;;6187523;23;20017;-84
2022/07/26 04:29:02;;;;;;;0.10;0.10;;;;;;;;;;6187817;23;20071;-84
2022/07/26 04:31:28;;;;;;;0.10;0.10;;;;;;;;;;6187986;23;20378;-85
2022/07/26 04:33:54;;;;;;;0.10;0.10;;;;;;;;;;6187746;23;20043;-85
2022/07/26 04:36:20;;;;;;;0.10;0.10;;;;;;;;;;6187809;23;20019;-85
2022/07/26 04:38:46;;;;;;;0.10;0.10;;;;;;;;;;6187581;23;20015;-85
2022/07/26 04:41:12;;;;;;;0.20;0.20;;;;;;;;;;6163269;23;20083;-85
2022/07/26 04:43:38;;;;;;;0.10;0.10;;;;;;;;;;6187627;23;20013;-86
2022/07/26 04:46:04;;;;;;;0.10;0.10;;;;;;;;;;6187376;23;20358;-85
2022/07/26 04:48:30;;;;;;;0.10;0.10;;;;;;;;;;6187480;23;20016;-85
2022/07/26 04:50:56;;;;;;;0.10;0.10;;;;;;;;;;6187805;23;20334;-85
2022/07/26 04:53:22;;;;;;;0.10;0.10;;;;;;;;;;6187723;23;20013;-85
2022/07/26 04:55:48;;;;;;;0.10;0.10;;;;;;;;;;6188344;23;20008;-85
2022/07/26 04:58:14;;;;;;;0.10;0.10;;;;;;;;;;6187847;23;20032;-85
2022/07/26 05:00:40;;;;;;;0.10;0.10;;;;;;;;;;6187771;23;20009;-85
2022/07/26 05:03:06;;;;;;;0.10;0.10;;;;;;;;;;6187357;23;20040;-85
2022/07/26 05:05:32;;;;;;;0.10;0.10;;;;;;;;;;6187600;23;20059;-86
2022/07/26 05:07:59;;;;;;;0.10;0.10;;;;;;;;;;6187635;23;20008;-86
2022/07/26 05:10:30;;;;;;;0.10;0.10;;;;;;;;;;6162803;23;20012;-87
2022/07/26 05:12:56;;;;;;;0.10;0.10;;;;;;;;;;6188083;23;20015;-87
2022/07/26 05:15:22;;;;;;;0.10;0.10;;;;;;;;;;6212293;23;20040;-87
2022/07/26 05:17:48;;;;;;;0.10;0.10;;;;;;;;;;6187525;23;20012;-87
2022/07/26 05:20:14;;;;;;;0.10;0.10;;;;;;;;;;6210092;23;20012;-87
2022/07/26 05:22:40;;;;;;;0.10;0.10;;;;;;;;;;6192915;23;20449;-87
2022/07/26 05:25:06;;;;;;;0.10;0.10;;;;;;;;;;6192883;23;20091;-88
2022/07/26 05:27:32;;;;;;;0.10;0.10;;;;;;;;;;6192893;23;20023;-87
2022/07/26 05:29:58;;;;;;;0.10;0.10;;;;;;;;;;6167862;23;20012;-87
2022/07/26 05:32:24;;;;;;;0.10;0.10;;;;;;;;;;6192760;23;20480;-87
2022/07/26 05:34:53;;;;;;;0.10;0.10;;;;;;;;;;6168675;23;20012;-86
2022/07/26 05:37:19;;;;;;;0.10;0.10;;;;;;;;;;6193993;23;20389;-86
2022/07/26 05:39:45;;;;;;;0.10;0.10;;;;;;;;;;6194757;23;20012;-87
2022/07/26 05:42:11;;;;;;;0.10;0.10;;;;;;;;;;6194854;23;20012;-86
2022/07/26 05:44:37;;;;;;;0.10;0.10;;;;;;;;;;6194733;23;20058;-88
2022/07/26 05:47:03;;;;;;;0.10;0.10;;;;;;;;;;6194672;23;20350;-87
2022/07/26 05:49:29;;;;;;;0.10;0.10;;;;;;;;;;6219539;23;20016;-87
2022/07/26 05:51:55;;;;;;;0.10;0.10;;;;;;;;;;6194723;23;20098;-87
2022/07/26 05:54:21;;;;;;;0.10;0.10;;;;;;;;;;6219560;23;20464;-90
2022/07/26 05:56:47;;;;;;;0.10;0.10;;;;;;;;;;6195421;23;20039;-91
2022/07/26 05:59:13;;;;;;;0.10;0.10;;;;;;;;;;6170392;23;20043;-86
2022/07/26 06:01:39;;;;;;;0.10;0.10;;;;;;;;;;6194438;23;20019;-86
2022/07/26 06:04:05;;;;;;;0.10;0.10;;;;;;;;;;6192494;23;20378;-86
2022/07/26 06:06:31;;;;;;;0.10;0.10;;;;;;;;;;6219154;23;20368;-86
2022/07/26 06:08:57;;;;;;;0.10;0.10;;;;;;;;;;6219166;23;20016;-85
2022/07/26 06:11:23;;;;;;;0.10;0.10;;;;;;;;;;6219296;23;20116;-86
2022/07/26 06:13:49;;;;;;;0.10;0.10;;;;;;;;;;6169572;23;20039;-88
2022/07/26 06:16:15;;;;;;;0.10;0.10;;;;;;;;;;6194105;23;20013;-83
2022/07/26 06:18:41;;;;;;;0.10;0.10;;;;;;;;;;6218692;23;20012;-86
2022/07/26 06:21:07;;;;;;;0.10;0.10;;;;;;;;;;6194383;23;20016;-86
2022/07/26 06:23:33;;;;;;;0.10;0.10;;;;;;;;;;6194256;23;20047;-86
2022/07/26 06:25:59;;;;;;;0.10;0.10;;;;;;;;;;6194181;23;20096;-85
2022/07/26 06:28:25;;;;;;;0.10;0.10;;;;;;;;;;6169176;23;20023;-85
2022/07/26 06:30:51;;;;;;;0.10;0.10;;;;;;;;;;6194230;23;20019;-86
2022/07/26 06:33:17;;;;;;;0.10;0.10;;;;;;;;;;6194081;23;20016;-85
2022/07/26 06:35:43;;;;;;;0.10;0.10;;;;;;;;;;6194210;23;20070;-86
2022/07/26 06:38:09;;;;;;;0.10;0.10;;;;;;;;;;6169250;23;20064;-86
2022/07/26 06:40:35;;;;;;;0.10;0.10;;;;;;;;;;6194146;23;20012;-86
2022/07/26 06:43:01;;;;;;;0.10;0.10;;;;;;;;;;6169789;23;20004;-86
2022/07/26 06:45:27;;;;;;;0.10;0.10;;;;;;;;;;6193994;23;20008;-86
2022/07/26 06:47:53;;;;;;;0.10;0.10;;;;;;;;;;6218803;22;20042;-86
2022/07/26 06:50:19;;;;;;;0.10;0.10;;;;;;;;;;6245931;23;20009;-86
2022/07/26 06:52:45;;;;;;;0.10;0.10;;;;;;;;;;6193936;23;20012;-86
2022/07/26 06:55:11;;;;;;;0.10;0.10;;;;;;;;;;6218886;23;20095;-84
2022/07/26 06:57:37;;;;;;;0.10;0.10;;;;;;;;;;6193853;23;20020;-84
2022/07/26 07:00:04;;;;;;;0.10;0.10;;;;;;;;;;6193767;23;20036;-84
2022/07/26 07:02:30;;;;;;;0.10;0.10;;;;;;;;;;6193926;23;20019;-84
2022/07/26 07:04:56;;;;;;;0.10;0.10;;;;;;;;;;6193859;23;20353;-89
2022/07/26 07:07:22;;;;;;;0.10;0.10;;;;;;;;;;6168892;23;20016;-84
2022/07/26 07:09:48;;;;;;;0.10;0.10;;;;;;;;;;6193474;23;20031;-84
2022/07/26 07:12:14;;;;;;;0.25;0.25;;;;;;;;;;6218447;23;20074;-83
2022/07/26 07:14:40;;;;;;;0.10;0.10;;;;;;;;;;6193824;23;20016;-83
2022/07/26 07:17:06;;;;;;;0.10;0.10;;;;;;;;;;6218787;23;20315;-83
2022/07/26 07:19:34;;;;;;;0.10;0.10;;;;;;;;;;6218367;23;20491;-83
2022/07/26 07:21:59;;;;;;;0.10;0.10;;;;;;;;;;6218674;23;20410;-83
2022/07/26 07:24:25;;;;;;;0.10;0.10;;;;;;;;;;6218707;23;20018;-83
2022/07/26 07:26:51;;;;;;;0.10;0.10;;;;;;;;;;6218719;23;20243;-83
2022/07/26 07:29:19;;;;;;;0.10;0.10;;;;;;;;;;6193540;23;20441;-83
2022/07/26 07:31:46;;;;;;;0.10;0.10;;;;;;;;;;6218522;23;20012;-83
2022/07/26 07:34:12;;;;;;;0.03;0.03;;;;;;;;;;6218384;23;20020;-83
2022/07/26 07:36:38;;;;;;;0.10;0.10;;;;;;;;;;6168850;23;20062;-83
2022/07/26 07:39:04;;;;;;;0.10;0.10;;;;;;;;;;6218410;23;20012;-83
2022/07/26 07:41:33;;;;;;;0.10;0.10;;;;;;;;;;6245091;23;20014;-83
2022/07/26 07:43:58;;;;;;;0.10;0.10;;;;;;;;;;6218363;23;20087;-83
2022/07/26 07:46:24;;;;;;;0.10;0.10;;;;;;;;;;6218577;23;20048;-83
2022/07/26 07:48:50;;;;;;;0.10;0.10;;;;;;;;;;6218469;23;20095;-83
2022/07/26 07:51:16;;;;;;;0.10;0.10;;;;;;;;;;6218395;23;20051;-84
2022/07/26 07:53:42;;;;;;;0.10;0.10;;;;;;;;;;6193170;23;20086;-84
2022/07/26 07:56:08;;;;;;;0.10;0.10;;;;;;;;;;6218243;23;20074;-84
2022/07/26 07:58:34;;;;;;;0.10;0.10;;;;;;;;;;6193077;23;20023;-84
2022/07/26 08:01:00;;;;;;;0.10;0.10;;;;;;;;;;6193254;23;20018;-84
2022/07/26 08:03:26;;;;;;;0.10;0.10;;;;;;;;;;6218216;23;20337;-84
2022/07/26 08:05:52;;;;;;;0.10;0.10;;;;;;;;;;6218312;23;20134;-84
2022/07/26 08:08:18;;;;;;;0.10;0.10;;;;;;;;;;6218180;23;20016;-83
2022/07/26 08:10:44;;;;;;;0.10;0.10;;;;;;;;;;6193316;23;20098;-83
2022/07/26 08:13:10;;;;;;;0.10;0.10;;;;;;;;;;6168416;23;20400;-84
2022/07/26 08:15:36;;;;;;;0.10;0.10;;;;;;;;;;6193256;23;20016;-84
2022/07/26 08:18:02;;;;;;;0.10;0.10;;;;;;;;;;6244839;22;20027;-84
2022/07/26 08:20:28;;;;;;;0.10;0.10;;;;;;;;;;6217987;23;20070;-84
2022/07/26 08:22:54;;;;;;;0.10;0.10;;;;;;;;;;6218255;23;20012;-84
2022/07/26 08:25:20;;;;;;;0.40;0.40;;;;;;;;;;6218065;23;20077;-84
2022/07/26 08:27:46;;;;;;;0.10;0.10;;;;;;;;;;6193006;22;20027;-84
2022/07/26 08:30:12;;;;;;;0.10;0.10;;;;;;;;;;6218160;23;20034;-84
2022/07/26 08:32:38;;;;;;;0.10;0.10;;;;;;;;;;6193163;23;20099;-84
2022/07/26 08:35:05;;;;;;;0.10;0.10;;;;;;;;;;6217974;23;20457;-84
2022/07/26 08:37:30;;;;;;;0.10;0.10;;;;;;;;;;6218129;23;20012;-84
2022/07/26 08:39:56;;;;;;;0.10;0.10;;;;;;;;;;6218014;23;20019;-84
2022/07/26 08:42:22;;;;;;;0.10;0.10;;;;;;;;;;6218167;23;20198;-84
2022/07/26 08:44:48;;;;;;;0.10;0.10;;;;;;;;;;6218096;23;20092;-84
2022/07/26 08:47:15;;;;;;;0.10;0.10;;;;;;;;;;6168334;23;20071;-84
2022/07/26 08:49:41;;;;;;;0.10;0.10;;;;;;;;;;6192597;23;20016;-85
2022/07/26 08:52:07;;;;;;;0.10;0.10;;;;;;;;;;6168239;23;20468;-85
2022/07/26 08:54:33;;;;;;;0.10;0.10;;;;;;;;;;6192766;23;20140;-85
2022/07/26 08:56:59;;;;;;;0.10;0.10;;;;;;;;;;6166612;23;20447;-85
2022/07/26 08:59:25;;;;;;;0.10;0.10;;;;;;;;;;6193108;23;20079;-86
2022/07/26 09:01:57;;;;;;;0.10;0.10;;;;;;;;;;6167971;23;20341;-85
2022/07/26 09:04:25;;;;;;;0.10;0.10;;;;;;;;;;6217747;23;20175;-86
2022/07/26 09:06:56;;;;;;;0.10;0.10;;;;;;;;;;6167921;23;20104;-85
2022/07/26 09:09:21;;;;;;;0.10;0.10;;;;;;;;;;6193415;23;20019;-85
2022/07/26 09:11:47;;;;;;;0.30;0.20;;;;;;;;;;6194090;23;20453;-86
2022/07/26 09:14:14;;;;;;;0.10;0.10;;;;;;;;;;6196049;23;20016;-84
2022/07/26 09:16:40;;;;;;;0.10;0.10;;;;;;;;;;6196188;23;20017;-84
2022/07/26 09:19:21;;;;;;;0.40;0.30;;;;;;;;;;6220686;23;20072;-84
2022/07/26 09:21:46;;;;;;;0.10;0.10;;;;;;;;;;6196674;23;20012;-84
2022/07/26 09:24:12;;;;;;;0.10;0.10;;;;;;;;;;6196199;23;20035;-85
2022/07/26 09:26:39;;;;;;;0.10;0.10;;;;;;;;;;6196123;23;20020;-84
2022/07/26 09:29:04;;;;;;;0.10;0.10;;;;;;;;;;6220921;23;20022;-86
2022/07/26 09:31:30;;;;;;;0.10;0.10;;;;;;;;;;6221008;23;20095;-85
2022/07/26 09:33:58;;;;;;;0.10;0.10;;;;;;;;;;6196124;23;20392;-89
2022/07/26 09:36:24;;;;;;;0.10;0.10;;;;;;;;;;6196424;23;20437;-86
2022/07/26 09:38:54;;;;;;;0.10;0.10;;;;;;;;;;6196061;23;20019;-85
2022/07/26 09:41:21;;;;;;;0.10;0.10;;;;;;;;;;6200128;23;20008;-85
2022/07/26 09:43:47;;;;;;;0.10;0.10;;;;;;;;;;6223926;23;20437;-85
2022/07/26 09:46:13;;;;;;;0.10;0.10;;;;;;;;;;6196790;23;20012;-86
2022/07/26 09:48:39;;;;;;;0.10;0.10;;;;;;;;;;6172545;23;20456;-85
2022/07/26 09:51:06;;;;;;;0.10;0.10;;;;;;;;;;6197093;23;20012;-86
2022/07/26 09:53:58;;;;;;;0.10;0.10;;;;;;;;;;6197623;23;20012;-86
2022/07/26 09:56:24;;;;;;;0.22;0.22;;;;;;;;;;6215300;23;20381;-88
2022/07/26 09:58:50;;;;;;;0.10;0.10;;;;;;;;;;6195594;23;20012;-89
2022/07/26 10:01:16;;;;;;;0.10;0.10;;;;;;;;;;6195816;23;20015;-88
2022/07/26 10:03:42;;;;;;;0.10;0.10;;;;;;;;;;6195772;23;20099;-90
2022/07/26 10:06:08;;;;;;;0.10;0.10;;;;;;;;;;6170965;23;20476;-88
2022/07/26 10:08:34;;;;;;;0.10;0.10;;;;;;;;;;6195830;23;20349;-90
2022/07/26 10:11:01;;;;;;;0.10;0.10;;;;;;;;;;6170976;23;20018;-89
2022/07/26 10:13:29;;;;;;;0.10;0.10;;;;;;;;;;6195737;23;20310;-89
2022/07/26 10:15:58;;;;;;;0.10;0.10;;;;;;;;;;6196041;23;20472;-89
2022/07/26 10:18:36;;;;;;;0.32;0.20;;;;;;;;;;6196029;23;20012;-90
2022/07/26 10:21:21;;;;;;;0.17;0.17;;;;;;;;;;6221023;23;20070;-89
2022/07/26 10:23:51;;;;;;;0.10;0.10;;;;;;;;;;6219101;23;20448;-89
2022/07/26 10:26:32;;;;;;;0.10;0.10;;;;;;;;;;6194165;23;20352;-90
2022/07/26 10:29:16;;;;;;;0.10;0.10;;;;;;;;;;6219056;23;20047;-90
2022/07/26 10:31:43;;;;;;;0.10;0.10;;;;;;;;;;6219154;23;20461;-90
2022/07/26 10:34:09;;;;;;;0.20;0.20;;;;;;;;;;6169184;23;20036;-93
2022/07/26 10:36:35;;;;;;;0.10;0.10;;;;;;;;;;6194472;23;20031;-93
2022/07/26 10:39:13;;;;;;;0.20;0.20;;;;;;;;;;6170693;23;20157;-91
2022/07/26 10:41:40;;;;;;;0.10;0.10;;;;;;;;;;6193987;23;20342;-89
2022/07/26 10:44:11;;;;;;;0.10;0.10;;;;;;;;;;6194021;23;20012;-87
2022/07/26 10:46:54;;;;;;;0.10;0.10;;;;;;;;;;6194045;23;20020;-87
2022/07/26 10:49:20;;;;;;;1.88;0.15;;;;;;;;;;6193640;23;20095;-86
2022/07/26 10:51:46;;;;;;;0.10;0.10;;;;;;;;;;6193842;23;20054;-85
2022/07/26 10:54:14;;;;;;;0.10;0.10;;;;;;;;;;6193769;23;20046;-88
2022/07/26 10:56:40;;;;;;;0.10;0.10;;;;;;;;;;6193670;23;20012;-87
2022/07/26 10:59:06;;;;;;;0.10;0.10;;;;;;;;;;6193854;23;20008;-88
2022/07/26 11:01:32;;;;;;;0.10;0.10;;;;;;;;;;6169043;23;20012;-88
2022/07/26 11:03:58;;;;;;;0.10;0.10;;;;;;;;;;6193687;23;20092;-85
2022/07/26 11:06:26;;;;;;;0.32;0.32;;;;;;;;;;6193607;23;20067;-85
2022/07/26 11:08:52;;;;;;;0.10;0.10;;;;;;;;;;6193636;23;20016;-85
2022/07/26 11:11:28;;;;;;;0.10;0.10;;;;;;;;;;6194163;23;20073;-85
2022/07/26 11:14:02;;;;;;;0.13;0.13;;;;;;;;;;6193516;23;20283;-85
2022/07/26 11:16:28;;;;;;;0.10;0.10;;;;;;;;;;6218865;23;20044;-85
2022/07/26 11:18:54;;;;;;;0.10;0.10;;;;;;;;;;6188045;23;20087;-85
2022/07/26 11:21:20;;;;;;;0.10;0.10;;;;;;;;;;6163878;23;20015;-85
2022/07/26 11:23:47;;;;;;;0.10;0.10;;;;;;;;;;6163652;23;20023;-86
2022/07/26 11:26:13;;;;;;;0.10;0.10;;;;;;;;;;6188432;23;20027;-86
2022/07/26 11:28:47;;;;;;;0.10;0.10;;;;;;;;;;6188222;23;20040;-88
2022/07/26 11:31:14;;;;;;;0.10;0.10;;;;;;;;;;6139238;23;20017;-88
2022/07/26 11:33:42;;;;;;;0.20;0.20;;;;;;;;;;6163467;23;20139;-87
2022/07/26 11:36:08;;;;;;;0.10;0.10;;;;;;;;;;6163494;23;20139;-88
2022/07/26 11:38:44;;;;;;;0.10;0.10;;;;;;;;;;6139304;23;20017;-88
2022/07/26 11:41:10;;;;;;;0.10;0.10;;;;;;;;;;6138922;23;20008;-88
2022/07/26 11:43:39;;;;;;;0.52;0.52;;;;;;;;;;6163580;23;20461;-87
2022/07/26 11:46:05;;;;;;;0.10;0.10;;;;;;;;;;6139130;23;20024;-87
2022/07/26 11:48:32;;;;;;;0.10;0.10;;;;;;;;;;6138881;23;20012;-88
2022/07/26 11:51:17;;;;;;;0.10;0.10;;;;;;;;;;6139104;23;20024;-87
2022/07/26 11:53:43;;;;;;;0.10;0.10;;;;;;;;;;6162959;23;20047;-87
2022/07/26 11:56:22;;;;;;;0.10;0.10;;;;;;;;;;6138361;23;20035;-87
2022/07/26 11:58:50;;;;;;;0.10;0.10;;;;;;;;;;6138774;23;20009;-91
2022/07/26 12:01:17;;;;;;;0.10;0.10;;;;;;;;;;6139009;23;20009;-88
2022/07/26 12:03:43;;;;;;;0.10;0.10;;;;;;;;;;6138496;23;20017;-90
2022/07/26 12:06:11;;;;;;;0.10;0.10;;;;;;;;;;6138730;23;20035;-89
2022/07/26 12:08:43;;;;;;;0.38;0.20;;;;;;;;;;6138580;23;20024;-90
2022/07/26 12:11:09;;;;;;;0.10;0.10;;;;;;;;;;6187973;23;20016;-90
2022/07/26 12:13:47;;;;;;;0.10;0.10;;;;;;;;;;6163221;23;20016;-90
2022/07/26 12:16:13;;;;;;;0.10;0.10;;;;;;;;;;6139043;23;20008;-90
2022/07/26 12:18:39;;;;;;;0.10;0.10;;;;;;;;;;6163213;23;20464;-92
2022/07/26 12:21:06;;;;;;;0.10;0.10;;;;;;;;;;6188324;23;20016;-91
2022/07/26 12:24:02;;;;;;;0.10;0.10;;;;;;;;;;6188188;23;20016;-92
2022/07/26 12:26:29;;;;;;;0.20;0.20;;;;;;;;;;6187958;23;20017;-91
2022/07/26 12:28:55;;;;;;;0.10;0.10;;;;;;;;;;6163156;23;20168;-94
2022/07/26 12:31:28;;;;;;;0.10;0.10;;;;;;;;;;6187723;23;20434;-90
2022/07/26 12:33:54;;;;;;;0.10;0.10;;;;;;;;;;6188094;23;20021;-90
2022/07/26 12:36:21;;;;;;;0.10;0.10;;;;;;;;;;6162996;23;20080;-90
2022/07/26 12:38:47;;;;;;;0.10;0.10;;;;;;;;;;6187660;23;20012;-89
2022/07/26 12:41:18;;;;;;;0.10;0.10;;;;;;;;;;6163002;23;20011;-90
2022/07/26 12:43:44;;;;;;;0.10;0.10;;;;;;;;;;6186429;23;20067;-88
2022/07/26 12:46:10;;;;;;;0.10;0.10;;;;;;;;;;6187479;23;20434;-87
2022/07/26 12:48:37;;;;;;;0.10;0.10;;;;;;;;;;6187592;23;20046;-88
2022/07/26 12:51:03;;;;;;;0.10;0.10;;;;;;;;;;6187733;23;20458;-87
2022/07/26 12:53:29;;;;;;;0.10;0.10;;;;;;;;;;6187503;23;20017;-87
2022/07/26 12:55:55;;;;;;;0.10;0.10;;;;;;;;;;6187575;23;20323;-87
2022/07/26 12:58:21;;;;;;;0.10;0.10;;;;;;;;;;6187332;23;20013;-87
2022/07/26 13:00:47;;;;;;;0.10;0.10;;;;;;;;;;6187342;23;20009;-86
2022/07/26 13:03:13;;;;;;;0.10;0.10;;;;;;;;;;6162852;23;20043;-88
2022/07/26 13:05:39;;;;;;;0.10;0.10;;;;;;;;;;6187435;23;20019;-88
2022/07/26 13:08:05;;;;;;;0.10;0.10;;;;;;;;;;6187760;23;20009;-88
2022/07/26 13:10:31;;;;;;;0.10;0.10;;;;;;;;;;6187414;23;20046;-88
2022/07/26 13:12:57;;;;;;;0.10;0.10;;;;;;;;;;6187311;23;20483;-87
2022/07/26 13:15:23;;;;;;;0.10;0.10;;;;;;;;;;6187464;23;20017;-87
2022/07/26 13:17:50;;;;;;;0.10;0.10;;;;;;;;;;6162720;23;20040;-87
2022/07/26 13:20:16;;;;;;;0.10;0.10;;;;;;;;;;6162637;23;20012;-87
2022/07/26 13:22:42;;;;;;;0.10;0.10;;;;;;;;;;6162877;23;20087;-86
2022/07/26 13:25:08;;;;;;;0.10;0.10;;;;;;;;;;6187824;23;20023;-88
2022/07/26 13:27:34;;;;;;;0.10;0.10;;;;;;;;;;6187500;23;20023;-89
2022/07/26 13:30:00;;;;;;;0.10;0.10;;;;;;;;;;6187343;23;20083;-88
2022/07/26 13:32:26;;;;;;;0.10;0.10;;;;;;;;;;6187750;23;20048;-88
2022/07/26 13:34:52;;;;;;;0.10;0.10;;;;;;;;;;6187295;23;20020;-88
2022/07/26 13:37:18;;;;;;;0.10;0.10;;;;;;;;;;6187329;23;20067;-89
2022/07/26 13:39:44;;;;;;;0.10;0.10;;;;;;;;;;6187140;23;20346;-88
2022/07/26 13:42:10;;;;;;;0.20;0.20;;;;;;;;;;6187212;23;20120;-85
2022/07/26 13:44:36;;;;;;;0.10;0.10;;;;;;;;;;6187704;23;20013;-86
2022/07/26 13:47:02;;;;;;;0.10;0.10;;;;;;;;;;6162744;23;20438;-85
2022/07/26 13:49:28;;;;;;;0.10;0.10;;;;;;;;;;6187205;23;20024;-85
2022/07/26 13:51:57;;;;;;;0.10;0.10;;;;;;;;;;6187346;23;20055;-86
2022/07/26 13:54:24;;;;;;;0.10;0.10;;;;;;;;;;6186580;23;20020;-85
2022/07/26 13:56:50;;;;;;;0.10;0.10;;;;;;;;;;6186748;23;20019;-85
2022/07/26 13:59:16;;;;;;;0.10;0.10;;;;;;;;;;6163354;23;20009;-84
2022/07/26 14:01:42;;;;;;;0.10;0.10;;;;;;;;;;6189086;23;20060;-86
2022/07/26 14:04:08;;;;;;;0.10;0.10;;;;;;;;;;6189113;23;20013;-85
2022/07/26 14:06:34;;;;;;;0.10;0.10;;;;;;;;;;6189062;23;20021;-88
2022/07/26 14:09:01;;;;;;;0.10;0.10;;;;;;;;;;6188845;23;20016;-85
2022/07/26 14:11:27;;;;;;;0.10;0.10;;;;;;;;;;6164067;23;20066;-86
2022/07/26 14:13:53;;;;;;;0.10;0.10;;;;;;;;;;6188546;23;20099;-86
2022/07/26 14:16:19;;;;;;;0.10;0.10;;;;;;;;;;6188766;23;20384;-86
2022/07/26 14:18:45;;;;;;;0.20;0.20;;;;;;;;;;6188553;23;20019;-86
2022/07/26 14:21:11;;;;;;;0.10;0.10;;;;;;;;;;6188862;23;20013;-85
2022/07/26 14:23:37;;;;;;;0.10;0.10;;;;;;;;;;6188727;23;20031;-86
2022/07/26 14:26:03;;;;;;;0.10;0.10;;;;;;;;;;6139498;23;20016;-86
2022/07/26 14:28:29;;;;;;;0.10;0.10;;;;;;;;;;6188611;23;20330;-86
2022/07/26 14:30:55;;;;;;;0.10;0.10;;;;;;;;;;6164106;23;20111;-87
2022/07/26 14:33:21;;;;;;;0.10;0.10;;;;;;;;;;6164199;23;20373;-86
2022/07/26 14:35:49;;;;;;;0.10;0.10;;;;;;;;;;6188677;23;20031;-86
2022/07/26 14:38:15;;;;;;;0.10;0.10;;;;;;;;;;6163940;23;20012;-86
2022/07/26 14:40:41;;;;;;;0.10;0.10;;;;;;;;;;6188791;23;20397;-87